createdAt,value
2023-03-23T16:00:19.247Z,98767.70
2023-03-23T16:03:25.983Z,98763.27
2023-03-23T16:06:29.950Z,98765.92
2023-03-23T16:09:31.549Z,98766.41
2023-03-23T16:12:33.430Z,98761.61
2023-03-23T16:15:35.119Z,98765.59
2023-03-23T16:18:36.736Z,98769.59
2023-03-23T16:21:38.373Z,98765.12
2023-03-23T16:24:39.902Z,98770.50
2023-03-23T16:27:42.120Z,98765.45
2023-03-23T16:30:44.605Z,98763.17
2023-03-23T16:33:46.103Z,98770.80
2023-03-23T16:36:47.740Z,98768.67
2023-03-23T16:39:49.232Z,98770.30
2023-03-23T16:42:50.974Z,98773.41
2023-03-23T16:45:56.062Z,98769.83
2023-03-23T16:48:57.695Z,98769.53
2023-03-23T16:51:59.317Z,98772.17
2023-03-23T16:55:00.955Z,98765.80
2023-03-23T16:58:15.502Z,98761.92
2023-03-23T17:01:18.379Z,98761.13
2023-03-23T17:04:20.139Z,98764.02
2023-03-23T17:07:21.708Z,98762.34
2023-03-23T17:10:27.799Z,98766.31
2023-03-23T17:13:29.646Z,98765.41
2023-03-23T17:16:31.369Z,98764.90
2023-03-23T17:19:33.376Z,98770.11
2023-03-23T17:22:35.329Z,98767.28
2023-03-23T17:25:36.870Z,98769.66
2023-03-23T17:28:38.513Z,98770.60
2023-03-23T17:31:40.077Z,98773.80
2023-03-23T17:34:42.244Z,98771.50
2023-03-23T17:37:43.782Z,98777.56
2023-03-23T17:40:45.368Z,98784.23
2023-03-23T17:43:47.206Z,98774.11
2023-03-23T17:46:48.710Z,98773.23
2023-03-23T17:49:50.280Z,98773.95
2023-03-23T17:52:51.851Z,98779.40
2023-03-23T17:55:53.481Z,98780.95
2023-03-23T17:58:55.085Z,98775.14
2023-03-23T18:01:56.955Z,98776.20
2023-03-23T18:04:58.589Z,98791.90
2023-03-23T18:08:00.168Z,98804.39
2023-03-23T18:11:02.060Z,98809.61
2023-03-23T18:14:03.912Z,98820.17
2023-03-23T18:17:05.464Z,98820.95
2023-03-23T18:20:08.017Z,98818.93
2023-03-23T18:23:09.730Z,98819.77
2023-03-23T18:26:13.488Z,98824.09
2023-03-23T18:29:15.052Z,98820.92
2023-03-23T18:32:17.064Z,98818.33
2023-03-23T18:35:19.007Z,98822.84
2023-03-23T18:38:20.785Z,98812.21
2023-03-23T18:41:22.598Z,98813.75
2023-03-23T18:44:24.190Z,98816.30
2023-03-23T18:47:26.474Z,98813.22
2023-03-23T18:50:28.207Z,98817.59
2023-03-23T18:53:30.411Z,98830.57
2023-03-23T18:56:32.027Z,98838.47
2023-03-23T18:59:33.668Z,98845.71
2023-03-23T19:02:35.461Z,98842.03
2023-03-23T19:05:38.925Z,98844.94
2023-03-23T19:08:40.745Z,98845.27
2023-03-23T19:11:42.778Z,98848.80
2023-03-23T19:14:44.482Z,98852.44
2023-03-23T19:17:46.615Z,98849.70
2023-03-23T19:21:12.605Z,98848.58
2023-03-23T19:24:10.712Z,98853.92
2023-03-23T19:27:12.240Z,98850.31
2023-03-23T19:30:14.016Z,98852.54
2023-03-23T19:33:16.166Z,98847.71
2023-03-23T19:36:18.466Z,98851.41
2023-03-23T19:39:20.316Z,98852.92
2023-03-23T19:42:22.990Z,98856.08
2023-03-23T19:45:25.281Z,98854.83
2023-03-23T19:48:27.132Z,98851.23
2023-03-23T19:51:29.057Z,98850.39
2023-03-23T19:54:31.006Z,98851.77
2023-03-23T19:57:32.604Z,98846.28
2023-03-23T20:00:35.850Z,98849.19
2023-03-23T20:03:38.068Z,98849.48
2023-03-23T20:06:40.135Z,98844.51
2023-03-23T20:09:41.792Z,98840.16
2023-03-23T20:12:43.591Z,98838.30
2023-03-23T20:15:52.164Z,98839.96
2023-03-23T20:18:54.312Z,98843.31
2023-03-23T20:21:56.414Z,98844.46
2023-03-23T20:25:00.445Z,98845.98
2023-03-23T20:28:02.475Z,98849.92
2023-03-23T20:31:23.493Z,98851.75
2023-03-23T20:34:26.124Z,98853.03
2023-03-23T20:37:27.976Z,98854.77
2023-03-23T20:40:30.611Z,98860.41
2023-03-23T20:43:33.300Z,98862.00
2023-03-23T20:46:35.259Z,98863.41
2023-03-23T20:49:38.214Z,98862.67
2023-03-23T20:52:39.851Z,98863.59
2023-03-23T20:55:41.595Z,98868.55
2023-03-23T20:58:43.223Z,98872.67
2023-03-23T21:01:44.911Z,98875.20
2023-03-23T21:04:47.576Z,98876.04
2023-03-23T21:07:49.459Z,98878.65
2023-03-23T21:10:51.241Z,98883.58
2023-03-23T21:13:53.014Z,98884.19
2023-03-23T21:16:54.667Z,98887.59
2023-03-23T21:19:56.495Z,98883.00
2023-03-23T21:22:58.090Z,98886.23
2023-03-23T21:26:01.984Z,98882.91
2023-03-23T21:29:03.940Z,98886.59
2023-03-23T21:32:08.571Z,98887.79
2023-03-23T21:35:10.803Z,98887.62
2023-03-23T21:38:12.533Z,98881.52
2023-03-23T21:41:14.387Z,98877.58
2023-03-23T21:44:16.492Z,98872.46
2023-03-23T21:47:18.173Z,98870.60
2023-03-23T21:50:19.829Z,98871.05
2023-03-23T21:53:22.203Z,98870.60
2023-03-23T21:56:25.896Z,98869.04
2023-03-23T21:59:27.982Z,98870.10
2023-03-23T22:02:29.525Z,98872.45
2023-03-23T22:05:31.863Z,98872.52
2023-03-23T22:08:33.425Z,98870.89
2023-03-23T22:11:36.970Z,98873.46
2023-03-23T22:14:39.281Z,98873.95
2023-03-23T22:17:41.036Z,98871.02
2023-03-23T22:20:43.405Z,98873.55
2023-03-23T22:23:45.821Z,98875.14
2023-03-23T22:26:47.385Z,98878.73
2023-03-23T22:29:49.117Z,98884.70
2023-03-23T22:32:50.604Z,98887.30
2023-03-23T22:35:52.278Z,98881.91
2023-03-23T22:38:54.325Z,98889.88
2023-03-23T22:41:56.018Z,98882.92
2023-03-23T22:44:57.562Z,98885.92
2023-03-23T22:47:59.167Z,98884.23
2023-03-23T22:51:00.799Z,98886.45
2023-03-23T22:54:03.057Z,98886.52
2023-03-23T22:57:11.184Z,98889.00
2023-03-23T23:00:13.735Z,98890.48
2023-03-23T23:03:16.228Z,98894.52
2023-03-23T23:06:19.168Z,98896.80
2023-03-23T23:09:20.833Z,98897.03
2023-03-23T23:12:22.571Z,98897.83
2023-03-23T23:15:24.378Z,98896.77
2023-03-23T23:18:26.850Z,98899.02
2023-03-23T23:21:28.390Z,98897.11
2023-03-23T23:24:30.201Z,98898.09
2023-03-23T23:27:32.053Z,98895.80
2023-03-23T23:30:34.295Z,98889.33
2023-03-23T23:33:35.910Z,98887.64
2023-03-23T23:36:37.477Z,98888.47
2023-03-23T23:39:39.089Z,98885.92
2023-03-23T23:42:41.659Z,98884.16
2023-03-23T23:45:43.581Z,98881.85
2023-03-23T23:48:45.343Z,98885.44
2023-03-23T23:51:47.146Z,98884.29
2023-03-23T23:54:48.839Z,98889.45
2023-03-23T23:57:50.548Z,98889.79
